sensor_id;sensor_type;location;lat;lon;timestamp;temperature;humidity
32660;DHT22;19064;47.912;12.308;2023-04-16T00:00:38;5.20;99.90
32660;DHT22;19064;47.912;12.308;2023-04-16T00:03:05;5.20;99.90
32660;DHT22;19064;47.912;12.308;2023-04-16T00:05:32;5.20;99.90
32660;DHT22;19064;47.912;12.308;2023-04-16T00:07:59;5.20;99.90
32660;DHT22;19064;47.912;12.308;2023-04-16T00:10:25;5.20;99.90
32660;DHT22;19064;47.912;12.308;2023-04-16T00:12:52;5.20;99.90
32660;DHT22;19064;47.912;12.308;2023-04-16T00:15:20;5.10;99.90
32660;DHT22;19064;47.912;12.308;2023-04-16T00:17:47;5.10;99.90
32660;DHT22;19064;47.912;12.308;2023-04-16T00:20:14;5.10;99.90
32660;DHT22;19064;47.912;12.308;2023-04-16T00:22:40;5.10;99.90
32660;DHT22;19064;47.912;12.308;2023-04-16T00:25:08;5.10;99.90
32660;DHT22;19064;47.912;12.308;2023-04-16T00:27:34;5.10;99.90
32660;DHT22;19064;47.912;12.308;2023-04-16T00:30:01;5.10;99.90
32660;DHT22;19064;47.912;12.308;2023-04-16T00:32:30;5.10;99.90
32660;DHT22;19064;47.912;12.308;2023-04-16T00:34:57;5.00;99.90
32660;DHT22;19064;47.912;12.308;2023-04-16T00:37:23;5.00;99.90
32660;DHT22;19064;47.912;12.308;2023-04-16T00:39:50;5.00;99.90
32660;DHT22;19064;47.912;12.308;2023-04-16T00:42:17;5.00;99.90
32660;DHT22;19064;47.912;12.308;2023-04-16T00:44:44;5.00;99.90
32660;DHT22;19064;47.912;12.308;2023-04-16T00:47:10;5.00;99.90
32660;DHT22;19064;47.912;12.308;2023-04-16T00:49:39;5.00;99.90
32660;DHT22;19064;47.912;12.308;2023-04-16T00:52:05;5.00;99.90
32660;DHT22;19064;47.912;12.308;2023-04-16T00:54:32;5.00;99.90
32660;DHT22;19064;47.912;12.308;2023-04-16T00:56:59;5.00;99.90
32660;DHT22;19064;47.912;12.308;2023-04-16T00:59:26;5.00;99.90
32660;DHT22;19064;47.912;12.308;2023-04-16T01:01:53;5.00;99.90
32660;DHT22;19064;47.912;12.308;2023-04-16T01:04:20;5.00;99.90
32660;DHT22;19064;47.912;12.308;2023-04-16T01:06:50;5.00;99.90
32660;DHT22;19064;47.912;12.308;2023-04-16T01:09:17;5.00;99.90
32660;DHT22;19064;47.912;12.308;2023-04-16T01:11:43;5.00;99.90
32660;DHT22;19064;47.912;12.308;2023-04-16T01:14:11;5.00;99.90
32660;DHT22;19064;47.912;12.308;2023-04-16T01:16:39;4.90;99.90
32660;DHT22;19064;47.912;12.308;2023-04-16T01:19:08;4.90;99.90
32660;DHT22;19064;47.912;12.308;2023-04-16T01:21:36;4.90;99.90
32660;DHT22;19064;47.912;12.308;2023-04-16T01:24:03;4.90;99.90
32660;DHT22;19064;47.912;12.308;2023-04-16T01:26:30;4.90;99.90
32660;DHT22;19064;47.912;12.308;2023-04-16T01:28:57;4.90;99.90
32660;DHT22;19064;47.912;12.308;2023-04-16T01:31:24;4.90;99.90
32660;DHT22;19064;47.912;12.308;2023-04-16T01:33:52;4.90;99.90
32660;DHT22;19064;47.912;12.308;2023-04-16T01:36:19;4.90;99.90
32660;DHT22;19064;47.912;12.308;2023-04-16T01:38:47;4.90;99.90
32660;DHT22;19064;47.912;12.308;2023-04-16T01:41:14;4.90;99.90
32660;DHT22;19064;47.912;12.308;2023-04-16T01:43:41;4.90;99.90
32660;DHT22;19064;47.912;12.308;2023-04-16T01:46:13;4.90;99.90
32660;DHT22;19064;47.912;12.308;2023-04-16T01:48:41;4.90;99.90
32660;DHT22;19064;47.912;12.308;2023-04-16T01:51:07;4.90;99.90
32660;DHT22;19064;47.912;12.308;2023-04-16T01:53:34;4.80;99.90
32660;DHT22;19064;47.912;12.308;2023-04-16T01:56:03;4.80;99.90
32660;DHT22;19064;47.912;12.308;2023-04-16T01:58:31;4.80;99.90
32660;DHT22;19064;47.912;12.308;2023-04-16T02:00:58;4.80;99.90
32660;DHT22;19064;47.912;12.308;2023-04-16T02:03:25;4.80;99.90
32660;DHT22;19064;47.912;12.308;2023-04-16T02:05:52;4.80;99.90
32660;DHT22;19064;47.912;12.308;2023-04-16T02:08:19;4.80;99.90
32660;DHT22;19064;47.912;12.308;2023-04-16T02:10:46;4.70;99.90
32660;DHT22;19064;47.912;12.308;2023-04-16T02:13:15;4.80;99.90
32660;DHT22;19064;47.912;12.308;2023-04-16T02:15:44;4.80;99.90
32660;DHT22;19064;47.912;12.308;2023-04-16T02:18:12;4.80;99.90
32660;DHT22;19064;47.912;12.308;2023-04-16T02:20:39;4.80;99.90
32660;DHT22;19064;47.912;12.308;2023-04-16T02:23:06;4.80;99.90
32660;DHT22;19064;47.912;12.308;2023-04-16T02:25:37;4.80;99.90
32660;DHT22;19064;47.912;12.308;2023-04-16T02:28:05;4.80;99.90
32660;DHT22;19064;47.912;12.308;2023-04-16T02:30:34;4.80;99.90
32660;DHT22;19064;47.912;12.308;2023-04-16T02:33:01;4.80;99.90
32660;DHT22;19064;47.912;12.308;2023-04-16T02:35:30;4.80;99.90
32660;DHT22;19064;47.912;12.308;2023-04-16T02:37:56;4.80;99.90
32660;DHT22;19064;47.912;12.308;2023-04-16T02:40:23;4.80;99.90
32660;DHT22;19064;47.912;12.308;2023-04-16T02:42:50;4.80;99.90
32660;DHT22;19064;47.912;12.308;2023-04-16T02:45:17;4.80;99.90
32660;DHT22;19064;47.912;12.308;2023-04-16T02:47:45;4.80;99.90
32660;DHT22;19064;47.912;12.308;2023-04-16T02:50:12;4.80;99.90
32660;DHT22;19064;47.912;12.308;2023-04-16T02:52:38;4.80;99.90
32660;DHT22;19064;47.912;12.308;2023-04-16T02:55:06;4.80;99.90
32660;DHT22;19064;47.912;12.308;2023-04-16T02:57:33;4.80;99.90
32660;DHT22;19064;47.912;12.308;2023-04-16T03:00:01;4.80;99.90
32660;DHT22;19064;47.912;12.308;2023-04-16T03:02:29;4.80;99.90
32660;DHT22;19064;47.912;12.308;2023-04-16T03:04:57;4.80;99.90
32660;DHT22;19064;47.912;12.308;2023-04-16T03:07:23;4.80;99.90
32660;DHT22;19064;47.912;12.308;2023-04-16T03:09:50;4.80;99.90
32660;DHT22;19064;47.912;12.308;2023-04-16T03:12:17;4.80;99.90
32660;DHT22;19064;47.912;12.308;2023-04-16T03:14:44;4.80;99.90
32660;DHT22;19064;47.912;12.308;2023-04-16T03:17:11;4.80;99.90
32660;DHT22;19064;47.912;12.308;2023-04-16T03:19:37;4.70;99.90
32660;DHT22;19064;47.912;12.308;2023-04-16T03:22:05;4.80;99.90
32660;DHT22;19064;47.912;12.308;2023-04-16T03:24:32;4.80;99.90
32660;DHT22;19064;47.912;12.308;2023-04-16T03:26:59;4.70;99.90
32660;DHT22;19064;47.912;12.308;2023-04-16T03:29:26;4.80;99.90
32660;DHT22;19064;47.912;12.308;2023-04-16T03:31:53;4.80;99.90
32660;DHT22;19064;47.912;12.308;2023-04-16T03:34:20;4.70;99.90
32660;DHT22;19064;47.912;12.308;2023-04-16T03:36:46;4.70;99.90
32660;DHT22;19064;47.912;12.308;2023-04-16T03:39:14;4.70;99.90
32660;DHT22;19064;47.912;12.308;2023-04-16T03:41:41;4.80;99.90
32660;DHT22;19064;47.912;12.308;2023-04-16T03:44:08;4.80;99.90
32660;DHT22;19064;47.912;12.308;2023-04-16T03:46:35;4.80;99.90
32660;DHT22;19064;47.912;12.308;2023-04-16T03:49:01;4.80;99.90
32660;DHT22;19064;47.912;12.308;2023-04-16T03:51:28;4.80;99.90
32660;DHT22;19064;47.912;12.308;2023-04-16T03:53:55;4.80;99.90
32660;DHT22;19064;47.912;12.308;2023-04-16T03:56:23;4.80;99.90
32660;DHT22;19064;47.912;12.308;2023-04-16T03:58:50;4.80;99.90
32660;DHT22;19064;47.912;12.308;2023-04-16T04:01:16;4.80;99.90
32660;DHT22;19064;47.912;12.308;2023-04-16T04:03:43;4.80;99.90
32660;DHT22;19064;47.912;12.308;2023-04-16T04:06:10;4.80;99.90
32660;DHT22;19064;47.912;12.308;2023-04-16T04:08:37;4.80;99.90
32660;DHT22;19064;47.912;12.308;2023-04-16T04:11:04;4.80;99.90
32660;DHT22;19064;47.912;12.308;2023-04-16T04:13:32;4.80;99.90
32660;DHT22;19064;47.912;12.308;2023-04-16T04:15:58;4.90;99.90
32660;DHT22;19064;47.912;12.308;2023-04-16T04:18:25;4.80;99.90
32660;DHT22;19064;47.912;12.308;2023-04-16T04:20:52;4.80;99.90
32660;DHT22;19064;47.912;12.308;2023-04-16T04:23:20;4.80;99.90
32660;DHT22;19064;47.912;12.308;2023-04-16T04:25:48;4.80;99.90
32660;DHT22;19064;47.912;12.308;2023-04-16T04:28:16;4.90;99.90
32660;DHT22;19064;47.912;12.308;2023-04-16T04:30:44;4.90;99.90
32660;DHT22;19064;47.912;12.308;2023-04-16T04:33:12;5.00;99.90
32660;DHT22;19064;47.912;12.308;2023-04-16T04:35:40;5.00;99.90
32660;DHT22;19064;47.912;12.308;2023-04-16T04:38:08;5.10;99.90
32660;DHT22;19064;47.912;12.308;2023-04-16T04:40:36;5.10;99.90
32660;DHT22;19064;47.912;12.308;2023-04-16T04:43:04;5.10;99.90
32660;DHT22;19064;47.912;12.308;2023-04-16T04:45:32;5.10;99.90
32660;DHT22;19064;47.912;12.308;2023-04-16T04:48:05;5.10;99.90
32660;DHT22;19064;47.912;12.308;2023-04-16T04:50:33;5.10;99.90
32660;DHT22;19064;47.912;12.308;2023-04-16T04:52:59;5.10;99.90
32660;DHT22;19064;47.912;12.308;2023-04-16T04:55:26;5.10;99.90
32660;DHT22;19064;47.912;12.308;2023-04-16T04:57:53;5.10;99.90
32660;DHT22;19064;47.912;12.308;2023-04-16T05:00:19;5.10;99.90
32660;DHT22;19064;47.912;12.308;2023-04-16T05:02:46;5.10;99.90
32660;DHT22;19064;47.912;12.308;2023-04-16T05:05:15;5.10;99.90
32660;DHT22;19064;47.912;12.308;2023-04-16T05:07:41;5.10;99.90
32660;DHT22;19064;47.912;12.308;2023-04-16T05:10:08;5.20;99.90
32660;DHT22;19064;47.912;12.308;2023-04-16T05:12:35;5.20;99.90
32660;DHT22;19064;47.912;12.308;2023-04-16T05:15:02;5.20;99.90
32660;DHT22;19064;47.912;12.308;2023-04-16T05:17:29;5.20;99.90
32660;DHT22;19064;47.912;12.308;2023-04-16T05:19:56;5.20;99.90
32660;DHT22;19064;47.912;12.308;2023-04-16T05:22:24;5.20;99.90
32660;DHT22;19064;47.912;12.308;2023-04-16T05:24:50;5.20;99.90
32660;DHT22;19064;47.912;12.308;2023-04-16T05:27:17;5.10;99.90
32660;DHT22;19064;47.912;12.308;2023-04-16T05:29:44;5.20;99.90
32660;DHT22;19064;47.912;12.308;2023-04-16T05:32:10;5.20;99.90
32660;DHT22;19064;47.912;12.308;2023-04-16T05:34:37;5.20;99.90
32660;DHT22;19064;47.912;12.308;2023-04-16T05:37:04;5.20;99.90
32660;DHT22;19064;47.912;12.308;2023-04-16T05:39:32;5.20;99.90
32660;DHT22;19064;47.912;12.308;2023-04-16T05:41:59;5.20;99.90
32660;DHT22;19064;47.912;12.308;2023-04-16T05:44:26;5.30;99.90
32660;DHT22;19064;47.912;12.308;2023-04-16T05:46:52;5.30;99.90
32660;DHT22;19064;47.912;12.308;2023-04-16T05:49:19;5.30;99.90
32660;DHT22;19064;47.912;12.308;2023-04-16T05:51:46;5.30;99.90
32660;DHT22;19064;47.912;12.308;2023-04-16T05:54:13;5.30;99.90
32660;DHT22;19064;47.912;12.308;2023-04-16T05:56:41;5.40;99.90
32660;DHT22;19064;47.912;12.308;2023-04-16T05:59:08;5.40;99.90
32660;DHT22;19064;47.912;12.308;2023-04-16T06:01:35;5.40;99.90
32660;DHT22;19064;47.912;12.308;2023-04-16T06:04:01;5.40;99.90
32660;DHT22;19064;47.912;12.308;2023-04-16T06:06:28;5.30;99.90
32660;DHT22;19064;47.912;12.308;2023-04-16T06:08:56;5.40;99.90
32660;DHT22;19064;47.912;12.308;2023-04-16T06:11:23;5.50;99.90
32660;DHT22;19064;47.912;12.308;2023-04-16T06:13:54;5.50;99.90
32660;DHT22;19064;47.912;12.308;2023-04-16T06:16:21;5.50;99.90
32660;DHT22;19064;47.912;12.308;2023-04-16T06:18:48;5.60;99.90
32660;DHT22;19064;47.912;12.308;2023-04-16T06:21:15;5.50;99.90
32660;DHT22;19064;47.912;12.308;2023-04-16T06:23:41;5.50;99.90
32660;DHT22;19064;47.912;12.308;2023-04-16T06:26:08;5.60;99.90
32660;DHT22;19064;47.912;12.308;2023-04-16T06:28:35;5.60;99.90
32660;DHT22;19064;47.912;12.308;2023-04-16T06:31:03;5.60;99.90
32660;DHT22;19064;47.912;12.308;2023-04-16T06:33:30;5.70;99.90
32660;DHT22;19064;47.912;12.308;2023-04-16T06:35:56;5.70;99.90
32660;DHT22;19064;47.912;12.308;2023-04-16T06:38:23;5.70;99.90
32660;DHT22;19064;47.912;12.308;2023-04-16T06:40:50;5.80;99.90
32660;DHT22;19064;47.912;12.308;2023-04-16T06:43:16;5.80;99.90
32660;DHT22;19064;47.912;12.308;2023-04-16T06:45:43;5.70;99.90
32660;DHT22;19064;47.912;12.308;2023-04-16T06:48:11;5.70;99.90
32660;DHT22;19064;47.912;12.308;2023-04-16T06:50:38;5.80;99.90
32660;DHT22;19064;47.912;12.308;2023-04-16T06:53:05;5.80;99.90
32660;DHT22;19064;47.912;12.308;2023-04-16T06:55:31;5.90;99.90
32660;DHT22;19064;47.912;12.308;2023-04-16T06:57:58;5.90;99.90
32660;DHT22;19064;47.912;12.308;2023-04-16T07:00:25;6.00;99.90
32660;DHT22;19064;47.912;12.308;2023-04-16T07:02:51;5.90;99.90
32660;DHT22;19064;47.912;12.308;2023-04-16T07:05:19;5.90;99.90
32660;DHT22;19064;47.912;12.308;2023-04-16T07:07:46;5.90;99.90
32660;DHT22;19064;47.912;12.308;2023-04-16T07:10:13;5.90;99.90
32660;DHT22;19064;47.912;12.308;2023-04-16T07:12:40;5.90;99.90
32660;DHT22;19064;47.912;12.308;2023-04-16T07:15:07;5.90;99.90
32660;DHT22;19064;47.912;12.308;2023-04-16T07:17:34;5.90;99.90
32660;DHT22;19064;47.912;12.308;2023-04-16T07:20:01;5.90;99.90
32660;DHT22;19064;47.912;12.308;2023-04-16T07:22:29;5.90;99.90
32660;DHT22;19064;47.912;12.308;2023-04-16T07:24:56;5.90;99.90
32660;DHT22;19064;47.912;12.308;2023-04-16T07:27:22;5.80;99.90
32660;DHT22;19064;47.912;12.308;2023-04-16T07:29:49;5.80;99.90
32660;DHT22;19064;47.912;12.308;2023-04-16T07:32:20;5.80;99.90
32660;DHT22;19064;47.912;12.308;2023-04-16T07:34:48;5.90;99.90
32660;DHT22;19064;47.912;12.308;2023-04-16T07:37:16;5.80;99.90
32660;DHT22;19064;47.912;12.308;2023-04-16T07:39:44;5.90;99.90
32660;DHT22;19064;47.912;12.308;2023-04-16T07:42:11;5.90;99.90
32660;DHT22;19064;47.912;12.308;2023-04-16T07:44:39;6.00;99.90
32660;DHT22;19064;47.912;12.308;2023-04-16T07:47:07;6.00;99.90
32660;DHT22;19064;47.912;12.308;2023-04-16T07:49:35;6.10;99.90
32660;DHT22;19064;47.912;12.308;2023-04-16T07:52:03;6.10;99.90
32660;DHT22;19064;47.912;12.308;2023-04-16T07:54:31;6.10;99.90
32660;DHT22;19064;47.912;12.308;2023-04-16T07:57:00;6.10;99.90
32660;DHT22;19064;47.912;12.308;2023-04-16T07:59:31;6.20;99.90
32660;DHT22;19064;47.912;12.308;2023-04-16T08:01:59;6.20;99.90
32660;DHT22;19064;47.912;12.308;2023-04-16T08:04:28;6.20;99.90
32660;DHT22;19064;47.912;12.308;2023-04-16T08:06:55;6.20;99.90
32660;DHT22;19064;47.912;12.308;2023-04-16T08:09:25;6.20;99.90
32660;DHT22;19064;47.912;12.308;2023-04-16T08:11:52;6.20;99.90
32660;DHT22;19064;47.912;12.308;2023-04-16T08:14:20;6.20;99.90
32660;DHT22;19064;47.912;12.308;2023-04-16T08:16:46;6.20;99.90
32660;DHT22;19064;47.912;12.308;2023-04-16T08:19:15;6.20;99.90
32660;DHT22;19064;47.912;12.308;2023-04-16T08:21:43;6.30;99.90
32660;DHT22;19064;47.912;12.308;2023-04-16T08:24:11;6.40;99.90
32660;DHT22;19064;47.912;12.308;2023-04-16T08:26:37;6.40;99.90
32660;DHT22;19064;47.912;12.308;2023-04-16T08:29:04;6.50;99.90
32660;DHT22;19064;47.912;12.308;2023-04-16T08:31:32;6.60;99.90
32660;DHT22;19064;47.912;12.308;2023-04-16T08:33:59;6.60;99.90
32660;DHT22;19064;47.912;12.308;2023-04-16T08:36:26;6.70;99.90
32660;DHT22;19064;47.912;12.308;2023-04-16T08:38:53;6.60;99.90
32660;DHT22;19064;47.912;12.308;2023-04-16T08:41:20;6.70;99.90
32660;DHT22;19064;47.912;12.308;2023-04-16T08:43:49;6.70;99.90
32660;DHT22;19064;47.912;12.308;2023-04-16T08:46:23;6.70;99.90
32660;DHT22;19064;47.912;12.308;2023-04-16T08:48:53;6.80;99.90
32660;DHT22;19064;47.912;12.308;2023-04-16T08:51:22;6.90;99.90
32660;DHT22;19064;47.912;12.308;2023-04-16T08:53:52;6.80;99.90
32660;DHT22;19064;47.912;12.308;2023-04-16T08:56:20;7.00;99.90
32660;DHT22;19064;47.912;12.308;2023-04-16T08:58:49;7.10;99.90
32660;DHT22;19064;47.912;12.308;2023-04-16T09:01:17;7.20;99.90
32660;DHT22;19064;47.912;12.308;2023-04-16T09:03:46;7.30;99.90
32660;DHT22;19064;47.912;12.308;2023-04-16T09:06:14;7.40;99.90
32660;DHT22;19064;47.912;12.308;2023-04-16T09:08:43;7.60;99.90
32660;DHT22;19064;47.912;12.308;2023-04-16T09:11:10;7.80;99.90
32660;DHT22;19064;47.912;12.308;2023-04-16T09:13:37;7.90;99.90
32660;DHT22;19064;47.912;12.308;2023-04-16T09:16:06;8.00;99.90
32660;DHT22;19064;47.912;12.308;2023-04-16T09:18:33;8.10;99.90
32660;DHT22;19064;47.912;12.308;2023-04-16T09:21:00;8.10;99.90
32660;DHT22;19064;47.912;12.308;2023-04-16T09:23:30;8.30;99.90
32660;DHT22;19064;47.912;12.308;2023-04-16T09:25:58;8.40;99.90
32660;DHT22;19064;47.912;12.308;2023-04-16T09:28:43;8.50;99.90
32660;DHT22;19064;47.912;12.308;2023-04-16T09:31:12;8.60;99.90
32660;DHT22;19064;47.912;12.308;2023-04-16T09:33:39;8.60;99.90
32660;DHT22;19064;47.912;12.308;2023-04-16T09:36:07;8.60;99.90
32660;DHT22;19064;47.912;12.308;2023-04-16T09:38:51;8.60;99.90
32660;DHT22;19064;47.912;12.308;2023-04-16T09:41:18;8.60;99.90
32660;DHT22;19064;47.912;12.308;2023-04-16T09:43:53;8.60;99.90
32660;DHT22;19064;47.912;12.308;2023-04-16T09:46:21;8.70;99.90
32660;DHT22;19064;47.912;12.308;2023-04-16T09:48:47;8.70;99.90
32660;DHT22;19064;47.912;12.308;2023-04-16T09:51:14;8.60;99.90
32660;DHT22;19064;47.912;12.308;2023-04-16T09:53:41;8.60;99.90
32660;DHT22;19064;47.912;12.308;2023-04-16T09:56:11;8.70;99.90
32660;DHT22;19064;47.912;12.308;2023-04-16T09:58:38;8.80;99.90
32660;DHT22;19064;47.912;12.308;2023-04-16T10:01:07;8.90;99.90
32660;DHT22;19064;47.912;12.308;2023-04-16T10:03:35;8.80;99.90
32660;DHT22;19064;47.912;12.308;2023-04-16T10:06:07;8.90;99.90
32660;DHT22;19064;47.912;12.308;2023-04-16T10:08:34;8.90;99.90
32660;DHT22;19064;47.912;12.308;2023-04-16T10:11:01;9.00;99.90
32660;DHT22;19064;47.912;12.308;2023-04-16T10:13:30;9.10;99.90
32660;DHT22;19064;47.912;12.308;2023-04-16T10:15:57;9.20;99.90
32660;DHT22;19064;47.912;12.308;2023-04-16T10:18:24;9.40;99.90
32660;DHT22;19064;47.912;12.308;2023-04-16T10:20:52;9.50;99.90
32660;DHT22;19064;47.912;12.308;2023-04-16T10:23:19;9.60;99.90
32660;DHT22;19064;47.912;12.308;2023-04-16T10:25:47;9.70;99.90
32660;DHT22;19064;47.912;12.308;2023-04-16T10:28:14;10.00;99.90
32660;DHT22;19064;47.912;12.308;2023-04-16T10:30:43;10.30;99.90
32660;DHT22;19064;47.912;12.308;2023-04-16T10:33:18;10.40;99.90
32660;DHT22;19064;47.912;12.308;2023-04-16T10:35:46;10.40;99.90
32660;DHT22;19064;47.912;12.308;2023-04-16T10:38:26;10.30;99.90
32660;DHT22;19064;47.912;12.308;2023-04-16T10:41:01;10.20;99.90
32660;DHT22;19064;47.912;12.308;2023-04-16T10:43:29;10.00;99.90
32660;DHT22;19064;47.912;12.308;2023-04-16T10:46:16;9.90;99.90
32660;DHT22;19064;47.912;12.308;2023-04-16T10:48:43;10.00;99.90
32660;DHT22;19064;47.912;12.308;2023-04-16T10:51:23;10.00;99.90
32660;DHT22;19064;47.912;12.308;2023-04-16T10:53:53;10.00;99.90
32660;DHT22;19064;47.912;12.308;2023-04-16T10:56:23;10.20;99.90
32660;DHT22;19064;47.912;12.308;2023-04-16T10:58:52;10.10;99.90
32660;DHT22;19064;47.912;12.308;2023-04-16T11:01:29;10.10;99.90
32660;DHT22;19064;47.912;12.308;2023-04-16T11:03:58;10.20;99.90
32660;DHT22;19064;47.912;12.308;2023-04-16T11:06:27;10.20;99.90
32660;DHT22;19064;47.912;12.308;2023-04-16T11:08:54;10.30;99.90
32660;DHT22;19064;47.912;12.308;2023-04-16T11:11:21;10.40;99.90
32660;DHT22;19064;47.912;12.308;2023-04-16T11:13:48;10.50;99.90
32660;DHT22;19064;47.912;12.308;2023-04-16T11:16:15;10.60;99.90
32660;DHT22;19064;47.912;12.308;2023-04-16T11:18:44;10.60;99.90
32660;DHT22;19064;47.912;12.308;2023-04-16T11:21:11;10.60;99.90
32660;DHT22;19064;47.912;12.308;2023-04-16T11:23:53;10.50;99.90
32660;DHT22;19064;47.912;12.308;2023-04-16T11:26:24;10.60;99.90
32660;DHT22;19064;47.912;12.308;2023-04-16T11:28:52;10.50;99.90
32660;DHT22;19064;47.912;12.308;2023-04-16T11:31:20;10.70;99.90
32660;DHT22;19064;47.912;12.308;2023-04-16T11:33:50;10.70;99.90
32660;DHT22;19064;47.912;12.308;2023-04-16T11:36:17;10.60;99.90
32660;DHT22;19064;47.912;12.308;2023-04-16T11:38:45;10.80;99.90
32660;DHT22;19064;47.912;12.308;2023-04-16T11:41:19;10.90;99.90
32660;DHT22;19064;47.912;12.308;2023-04-16T11:43:47;10.80;99.90
32660;DHT22;19064;47.912;12.308;2023-04-16T11:46:15;10.70;99.90
32660;DHT22;19064;47.912;12.308;2023-04-16T11:48:57;10.80;99.90
32660;DHT22;19064;47.912;12.308;2023-04-16T11:51:25;10.90;99.90
32660;DHT22;19064;47.912;12.308;2023-04-16T11:53:54;10.80;99.90
32660;DHT22;19064;47.912;12.308;2023-04-16T11:56:25;10.70;99.90
32660;DHT22;19064;47.912;12.308;2023-04-16T11:59:05;10.80;99.90
32660;DHT22;19064;47.912;12.308;2023-04-16T12:01:33;10.80;99.90
32660;DHT22;19064;47.912;12.308;2023-04-16T12:04:02;10.80;99.90
32660;DHT22;19064;47.912;12.308;2023-04-16T12:06:29;10.70;99.90
32660;DHT22;19064;47.912;12.308;2023-04-16T12:08:57;10.60;99.90
32660;DHT22;19064;47.912;12.308;2023-04-16T12:11:37;10.50;99.90
32660;DHT22;19064;47.912;12.308;2023-04-16T12:14:07;10.30;99.90
32660;DHT22;19064;47.912;12.308;2023-04-16T12:16:34;10.30;99.90
32660;DHT22;19064;47.912;12.308;2023-04-16T12:19:02;10.30;99.90
32660;DHT22;19064;47.912;12.308;2023-04-16T12:21:37;10.40;99.90
32660;DHT22;19064;47.912;12.308;2023-04-16T12:24:05;10.40;99.90
32660;DHT22;19064;47.912;12.308;2023-04-16T12:26:37;10.40;99.90
32660;DHT22;19064;47.912;12.308;2023-04-16T12:29:14;10.30;99.90
32660;DHT22;19064;47.912;12.308;2023-04-16T12:31:41;10.30;99.90
32660;DHT22;19064;47.912;12.308;2023-04-16T12:34:09;10.30;99.90
32660;DHT22;19064;47.912;12.308;2023-04-16T12:36:36;10.40;99.90
32660;DHT22;19064;47.912;12.308;2023-04-16T12:39:03;10.30;99.90
32660;DHT22;19064;47.912;12.308;2023-04-16T12:41:30;10.20;99.90
32660;DHT22;19064;47.912;12.308;2023-04-16T12:44:04;10.20;99.90
32660;DHT22;19064;47.912;12.308;2023-04-16T12:46:34;10.30;99.90
32660;DHT22;19064;47.912;12.308;2023-04-16T12:49:00;10.40;99.90
32660;DHT22;19064;47.912;12.308;2023-04-16T12:51:29;10.50;99.90
32660;DHT22;19064;47.912;12.308;2023-04-16T12:53:55;10.60;99.90
32660;DHT22;19064;47.912;12.308;2023-04-16T12:56:22;10.60;99.90
32660;DHT22;19064;47.912;12.308;2023-04-16T12:58:49;10.60;99.90
32660;DHT22;19064;47.912;12.308;2023-04-16T13:01:17;10.60;99.90
32660;DHT22;19064;47.912;12.308;2023-04-16T13:03:43;10.60;99.90
32660;DHT22;19064;47.912;12.308;2023-04-16T13:06:11;10.60;99.90
32660;DHT22;19064;47.912;12.308;2023-04-16T13:08:39;10.60;99.90
32660;DHT22;19064;47.912;12.308;2023-04-16T13:11:07;10.70;99.90
32660;DHT22;19064;47.912;12.308;2023-04-16T13:13:34;10.80;99.90
32660;DHT22;19064;47.912;12.308;2023-04-16T13:16:00;10.80;99.90
32660;DHT22;19064;47.912;12.308;2023-04-16T13:18:31;10.80;99.90
32660;DHT22;19064;47.912;12.308;2023-04-16T13:20:58;10.80;99.90
32660;DHT22;19064;47.912;12.308;2023-04-16T13:23:25;10.90;99.90
32660;DHT22;19064;47.912;12.308;2023-04-16T13:25:53;10.90;99.90
32660;DHT22;19064;47.912;12.308;2023-04-16T13:28:20;10.90;99.90
32660;DHT22;19064;47.912;12.308;2023-04-16T13:30:47;10.90;99.90
32660;DHT22;19064;47.912;12.308;2023-04-16T13:33:14;10.90;99.90
32660;DHT22;19064;47.912;12.308;2023-04-16T13:35:41;10.80;99.90
32660;DHT22;19064;47.912;12.308;2023-04-16T13:38:08;10.80;99.90
32660;DHT22;19064;47.912;12.308;2023-04-16T13:40:34;10.70;99.90
32660;DHT22;19064;47.912;12.308;2023-04-16T13:43:03;10.80;99.90
32660;DHT22;19064;47.912;12.308;2023-04-16T13:45:29;10.80;99.90
32660;DHT22;19064;47.912;12.308;2023-04-16T13:47:56;10.60;99.90
32660;DHT22;19064;47.912;12.308;2023-04-16T13:50:23;10.50;99.90
32660;DHT22;19064;47.912;12.308;2023-04-16T13:52:50;10.50;99.90
32660;DHT22;19064;47.912;12.308;2023-04-16T13:55:17;10.50;99.90
32660;DHT22;19064;47.912;12.308;2023-04-16T13:57:44;10.50;99.90
32660;DHT22;19064;47.912;12.308;2023-04-16T14:00:14;10.50;99.90
32660;DHT22;19064;47.912;12.308;2023-04-16T14:02:41;10.40;99.90
32660;DHT22;19064;47.912;12.308;2023-04-16T14:05:10;10.30;99.90
32660;DHT22;19064;47.912;12.308;2023-04-16T14:07:36;10.30;99.90
32660;DHT22;19064;47.912;12.308;2023-04-16T14:10:04;10.30;99.90
32660;DHT22;19064;47.912;12.308;2023-04-16T14:12:30;10.40;99.90
32660;DHT22;19064;47.912;12.308;2023-04-16T14:14:57;10.40;99.90
32660;DHT22;19064;47.912;12.308;2023-04-16T14:17:25;10.50;99.90
32660;DHT22;19064;47.912;12.308;2023-04-16T14:19:52;10.50;99.90
32660;DHT22;19064;47.912;12.308;2023-04-16T14:22:19;10.60;99.90
32660;DHT22;19064;47.912;12.308;2023-04-16T14:24:45;10.50;99.90
32660;DHT22;19064;47.912;12.308;2023-04-16T14:27:12;10.50;99.90
32660;DHT22;19064;47.912;12.308;2023-04-16T14:29:39;10.50;99.90
32660;DHT22;19064;47.912;12.308;2023-04-16T14:32:06;10.60;99.90
32660;DHT22;19064;47.912;12.308;2023-04-16T14:34:34;10.60;99.90
32660;DHT22;19064;47.912;12.308;2023-04-16T14:37:01;10.70;99.90
32660;DHT22;19064;47.912;12.308;2023-04-16T14:39:28;10.60;99.90
32660;DHT22;19064;47.912;12.308;2023-04-16T14:41:55;10.60;99.90
32660;DHT22;19064;47.912;12.308;2023-04-16T14:44:22;10.60;99.90
32660;DHT22;19064;47.912;12.308;2023-04-16T14:46:49;10.60;99.90
32660;DHT22;19064;47.912;12.308;2023-04-16T14:49:16;10.70;99.90
32660;DHT22;19064;47.912;12.308;2023-04-16T14:51:44;10.70;99.90
32660;DHT22;19064;47.912;12.308;2023-04-16T14:54:11;10.80;99.90
32660;DHT22;19064;47.912;12.308;2023-04-16T14:56:38;10.80;99.90
32660;DHT22;19064;47.912;12.308;2023-04-16T14:59:05;10.80;99.90
32660;DHT22;19064;47.912;12.308;2023-04-16T15:01:32;10.90;99.90
32660;DHT22;19064;47.912;12.308;2023-04-16T15:04:00;10.80;99.90
32660;DHT22;19064;47.912;12.308;2023-04-16T15:06:27;10.90;99.90
32660;DHT22;19064;47.912;12.308;2023-04-16T15:08:55;10.90;99.90
32660;DHT22;19064;47.912;12.308;2023-04-16T15:11:22;10.80;99.90
32660;DHT22;19064;47.912;12.308;2023-04-16T15:13:49;10.80;99.90
32660;DHT22;19064;47.912;12.308;2023-04-16T15:16:16;10.70;99.90
32660;DHT22;19064;47.912;12.308;2023-04-16T15:18:43;10.70;99.90
32660;DHT22;19064;47.912;12.308;2023-04-16T15:21:12;10.70;99.90
32660;DHT22;19064;47.912;12.308;2023-04-16T15:23:39;10.70;99.90
32660;DHT22;19064;47.912;12.308;2023-04-16T15:26:07;10.60;99.90
32660;DHT22;19064;47.912;12.308;2023-04-16T15:28:34;10.50;99.90